Sea Start — FAD9561 — position and weather

sailwx.info

Track history (hours):
 
Tides and Currents Weather Stations Pressure Air Temp Water Temp Dewpoint Dewpoint Depression Visibility Wind Speed Wind Dir Waves Ship Positions

Sea Start

Last reported at 2017-Nov-17 21:19 UTC. Time now 2017-Nov-21 11:50 UTC.
Position N 14°27' W 060°56'.

Length 10 m.

Type: Pleasure craft. MMSI: 347017380.

Date/timePositionNaut miles runAvg speedWind from/ knotsBaromVisibWave heightAir tempDewpointWater temp
2017-Nov-17 21:19N 14°27' W 060°56'4 0.1
2017-Nov-16 01:10N 14°28' W 060°52'0 0.6
2017-Nov-16 01:00N 14°28' W 060°52'1 2.5
2017-Nov-16 00:30N 14°27' W 060°53'3 5.6
2017-Nov-16 00:00N 14°24' W 060°54'2 4.8
2017-Nov-15 23:30N 14°27' W 060°54'2 0.1
2017-Nov-14 19:24N 14°28' W 060°52'0 0.0
2017-Nov-14 13:46N 14°28' W 060°52'2 7.5
2017-Nov-14 13:28N 14°27' W 060°54'4 4.0
2017-Nov-14 12:31N 14°23' W 060°53'021.3
2017-Nov-14 12:30N 14°23' W 060°53'5 4.1
2017-Nov-14 11:16N 14°28' W 060°52'1 5.3
2017-Nov-14 11:00N 14°27' W 060°53'  
Track history (hours):
 
Tides and Currents Weather Stations Pressure Air Temp Water Temp Dewpoint Dewpoint Depression Visibility Wind Speed Wind Dir Waves Ship Positions

Sea Start

Last reported at 2017-Nov-17 21:19 UTC. Time now 2017-Nov-21 11:50 UTC.
Position N 14°27' W 060°56'.

Length 10 m.

Type: Pleasure craft. MMSI: 347017380.

Date/timePositionNaut miles runAvg speedWind from/ knotsBaromVisibWave heightAir tempDewpointWater temp
2017-Nov-17 21:19N 14°27' W 060°56'4 0.1
2017-Nov-16 01:10N 14°28' W 060°52'0 0.6
2017-Nov-16 01:00N 14°28' W 060°52'1 2.5
2017-Nov-16 00:30N 14°27' W 060°53'3 5.6
2017-Nov-16 00:00N 14°24' W 060°54'2 4.8
2017-Nov-15 23:30N 14°27' W 060°54'2 0.1
2017-Nov-14 19:24N 14°28' W 060°52'0 0.0
2017-Nov-14 13:46N 14°28' W 060°52'2 7.5
2017-Nov-14 13:28N 14°27' W 060°54'4 4.0
2017-Nov-14 12:31N 14°23' W 060°53'021.3
2017-Nov-14 12:30N 14°23' W 060°53'5 4.1
2017-Nov-14 11:16N 14°28' W 060°52'1 5.3
2017-Nov-14 11:00N 14°27' W 060°53'  

Dump ship's entire track history